Terminal Aerodrome Forecast
Issued by NWS

Home | Current Version | Previous Version | Text Only | Print | Product List | Glossary On
Versions: 1 2 3 4 5 6 7 8 9 10 11 12 13 14 15 16 17 18 19
000
FTUS43 KDLH 181700
TAFHYR
TAF
KHYR 181726Z 1818/1918 VRB04KT P6SM SCT020
     FM182100 00000KT P6SM SKC
     FM190500 18005KT P6SM FEW022 SCT200
     FM191100 17008KT P6SM SCT018 SCT070 BKN140 WS020/23035KT
     FM191600 22010G18KT P6SM FEW025 BKN060 OVC100=

USA.gov is the U.S. government's official web portal to all federal, state and local government web resources and services.